Данни от 24.11.2020 г. 03:04:59

Температура вътрешна: 20.1 °C
Температура външна: 0.8 °C
Атмосферно налягане: 1007.5 hPa
Атмосферно налягане на морско равнище: 1025.5 hPa
Влажност: 58.9 %



История от последните 24 часа

Дата и часTin [°C]P [hPa]Psl [hPa]H [%]Tout [°C]
   24.11.2020 г. 03:00:00      20.1      1007.6      1025.6      59.1      1.8   
   24.11.2020 г. 02:30:59      20.2      1007.7      1025.7      59.0      1.1   
   24.11.2020 г. 02:00:00      20.2      1007.3      1025.3      58.8      2.0   
   24.11.2020 г. 01:30:59      20.2      1007.4      1025.4      58.0      2.6   
   24.11.2020 г. 01:00:00      20.3      1007.3      1025.3      58.2      1.1   
   24.11.2020 г. 00:30:59      20.3      1007.3      1025.3      58.2      1.3   
   24.11.2020 г. 00:00:00      20.4      1007.3      1025.2      58.2      2.3   
   23.11.2020 г. 23:30:59      20.5      1007.2      1025.2      58.0      1.9   
   23.11.2020 г. 23:00:00      20.6      1007.3      1025.2      56.8      2.1   
   23.11.2020 г. 22:30:59      20.6      1007.4      1025.4      57.1      3.1   
   23.11.2020 г. 22:00:00      20.7      1007.3      1025.3      56.8      3.8   
   23.11.2020 г. 21:30:59      20.7      1007.2      1025.1      55.9      3.5   
   23.11.2020 г. 21:00:00      20.9      1007.2      1025.2      56.7      2.4   
   23.11.2020 г. 20:30:59      21.1      1007.3      1025.3      56.3      2.4   
   23.11.2020 г. 20:00:00      21.2      1007.5      1025.4      56.1      2.9   
   23.11.2020 г. 19:30:59      21.2      1007.7      1025.7      56.3      3.3   
   23.11.2020 г. 19:00:00      21.2      1007.8      1025.8      56.2      4.1   
   23.11.2020 г. 18:30:59      21.2      1007.8      1025.8      55.9      5.0   
   23.11.2020 г. 18:00:00      21.2      1007.9      1025.9      56.1      5.6   
   23.11.2020 г. 17:30:59      21.4      1007.8      1025.8      56.3      6.0   
   23.11.2020 г. 17:00:00      21.2      1007.7      1025.7      56.6      9.0   
   23.11.2020 г. 16:30:00      20.2      1007.7      1025.7      56.7      11.8   
   23.11.2020 г. 16:00:59      20.3      1007.7      1025.7      56.0      16.5   
   23.11.2020 г. 15:30:00      20.4      1007.5      1025.5      56.9      17.1   
   23.11.2020 г. 15:00:59      20.3      1007.6      1025.6      57.7      15.9   
   23.11.2020 г. 14:30:59      20.2      1007.9      1025.8      57.4      14.8   
   23.11.2020 г. 14:30:00      20.2      1007.9      1025.8      58.0      14.6   
   23.11.2020 г. 14:00:59      20.3      1008.3      1026.3      56.5      13.6   
   23.11.2020 г. 13:30:00      20.3      1008.7      1026.7      57.5      12.4   
   23.11.2020 г. 13:00:59      20.3      1009.0      1027.0      57.2      11.2   
   23.11.2020 г. 12:30:00      20.3      1009.5      1027.5      57.0      10.0   
   23.11.2020 г. 12:00:59      20.3      1010.1      1028.1      56.9      8.8   
   23.11.2020 г. 11:30:00      20.3      1010.5      1028.6      57.0      7.6   
   23.11.2020 г. 11:00:59      20.4      1010.6      1028.7      56.8      6.3   
   23.11.2020 г. 10:30:00      20.4      1011.1      1029.2      57.4      5.3   
   23.11.2020 г. 10:00:59      20.4      1011.2      1029.2      57.7      4.1   
   23.11.2020 г. 09:30:00      20.2      1011.3      1029.3      57.9      3.1   
   23.11.2020 г. 09:00:59      20.1      1011.2      1029.3      58.2      2.6   
   23.11.2020 г. 08:30:00      20.4      1011.3      1029.4      58.0      2.0   
   23.11.2020 г. 08:00:59      20.3      1011.2      1029.3      59.2      1.6   
   23.11.2020 г. 07:30:00      20.4      1011.2      1029.3      58.6      1.9   
   23.11.2020 г. 07:00:59      20.7      1011.3      1029.3      60.4      1.6   
   23.11.2020 г. 06:30:00      20.7      1011.3      1029.4      60.0      -0.6   
   23.11.2020 г. 06:00:59      20.8      1011.3      1029.3      60.5      0.3   
   23.11.2020 г. 05:30:00      20.8      1011.3      1029.4      59.9      2.3   
   23.11.2020 г. 05:00:59      20.9      1011.6      1029.7      60.0      2.0   
   23.11.2020 г. 04:30:00      20.9      1011.8      1029.9      59.8      2.0   
   23.11.2020 г. 04:00:59      21.0      1011.8      1029.9      60.2      2.1   

BaroSL graphic

TEMPE graphic